createdAt,value
2018-07-04T13:48:48.529Z,3.63
2018-07-04T13:51:22.004Z,5.03
2018-07-04T13:53:55.642Z,4.00
2018-07-04T13:56:29.245Z,5.40
2018-07-04T13:59:02.918Z,8.70
2018-07-04T14:01:36.535Z,4.63
2018-07-04T14:04:10.136Z,6.33
2018-07-04T14:06:43.606Z,3.97
2018-07-04T14:09:17.515Z,6.63
2018-07-04T14:11:51.124Z,7.17
2018-07-04T14:14:24.648Z,5.00
2018-07-04T14:16:59.095Z,4.13
2018-07-04T14:19:32.936Z,5.77
2018-07-04T14:22:06.488Z,13.20
2018-07-04T14:24:40.118Z,11.93
2018-07-04T14:27:13.711Z,12.97
2018-07-04T14:29:47.290Z,13.33
2018-07-04T15:20:00.119Z,5.60
2018-07-04T15:22:33.959Z,8.47
2018-07-04T15:25:07.644Z,8.60
2018-07-04T15:27:41.438Z,13.03
2018-07-04T15:30:15.241Z,3.90
2018-07-04T15:32:48.983Z,3.73
2018-07-04T15:35:22.652Z,4.53
2018-07-04T15:37:56.377Z,3.30
2018-07-04T15:40:30.539Z,4.63
2018-07-04T15:43:04.180Z,2.83
2018-07-04T15:45:37.877Z,3.87
2018-07-04T15:48:11.704Z,5.67
2018-07-04T15:50:45.271Z,4.53
2018-07-04T15:53:18.970Z,2.63
2018-07-04T15:55:52.679Z,4.70
2018-07-04T15:58:26.344Z,4.57
2018-07-04T16:00:59.998Z,4.87
2018-07-04T16:03:34.099Z,4.77
2018-07-04T16:06:07.840Z,6.40
2018-07-04T16:52:00.321Z,3.77
2018-07-04T16:54:34.137Z,4.47
2018-07-04T16:57:07.932Z,6.00
2018-07-04T16:59:41.677Z,3.27
2018-07-04T17:02:15.462Z,2.00
2018-07-04T17:04:49.199Z,4.00
2018-07-04T17:07:22.968Z,2.53
2018-07-04T17:12:24.591Z,2.97
2018-07-04T17:14:58.245Z,3.40
2018-07-04T17:17:32.039Z,2.40
2018-07-04T17:20:05.940Z,3.13
2018-07-04T17:25:25.529Z,5.27
2018-07-04T17:28:00.631Z,2.53
2018-07-04T17:30:34.286Z,2.37
2018-07-04T17:33:07.830Z,2.47
2018-07-04T17:35:41.487Z,3.23
2018-07-04T17:38:15.807Z,5.07
2018-07-04T17:57:23.775Z,2.83
2018-07-04T17:59:58.456Z,3.00
2018-07-04T18:02:32.179Z,3.10
2018-07-04T18:05:05.743Z,3.30
2018-07-04T18:07:39.346Z,3.53
2018-07-04T18:10:13.014Z,3.40
2018-07-04T18:12:46.623Z,3.47
2018-07-04T18:15:20.092Z,2.70
2018-07-04T18:17:53.661Z,2.70
2018-07-04T18:20:27.394Z,3.33
2018-07-04T18:23:00.977Z,3.30
2018-07-04T18:25:34.702Z,3.37
2018-07-04T18:28:08.403Z,2.70
2018-07-04T18:30:42.369Z,2.70
2018-07-04T18:33:16.240Z,3.57
2018-07-04T18:35:49.917Z,2.87
2018-07-04T18:38:23.646Z,3.03
2018-07-04T18:40:57.318Z,3.43
2018-07-04T20:23:02.691Z,4.40
2018-07-04T20:25:36.298Z,3.50
2018-07-04T20:28:09.985Z,3.20
2018-07-04T20:30:43.539Z,3.20
2018-07-04T20:33:17.167Z,3.70
2018-07-04T20:35:50.840Z,3.03
2018-07-04T20:38:24.386Z,3.30
2018-07-04T20:40:58.031Z,4.23
2018-07-04T20:43:31.801Z,3.10
2018-07-04T20:46:05.415Z,3.33
2018-07-04T20:48:39.012Z,3.13
2018-07-04T20:51:12.623Z,3.07
2018-07-04T20:53:46.234Z,3.50
2018-07-04T20:56:19.687Z,3.03
2018-07-04T20:58:53.353Z,3.40
2018-07-04T21:01:27.159Z,3.10
2018-07-04T21:04:00.728Z,3.77
2018-07-04T21:09:38.887Z,3.20
2018-07-04T21:12:12.543Z,3.67
2018-07-04T21:14:46.193Z,3.23
2018-07-04T21:17:19.851Z,3.17
2018-07-04T21:19:53.280Z,3.43
2018-07-04T21:22:26.863Z,2.97
2018-07-04T21:25:00.468Z,3.37
2018-07-04T21:27:34.036Z,2.80
2018-07-04T21:30:07.586Z,2.90
2018-07-04T21:32:41.295Z,2.80
2018-07-04T21:35:14.941Z,2.93
2018-07-04T21:37:48.513Z,3.17
2018-07-04T21:40:21.993Z,2.90
2018-07-04T21:42:55.443Z,2.63
2018-07-04T21:45:29.037Z,3.07
2018-07-04T21:48:02.603Z,2.93
2018-07-04T21:50:36.051Z,3.80
2018-07-04T21:53:09.684Z,3.93
2018-07-04T21:55:43.218Z,2.70
2018-07-04T21:58:16.907Z,2.80
2018-07-04T22:00:50.427Z,2.50
2018-07-04T22:03:24.075Z,2.50
2018-07-04T22:05:57.636Z,2.70
2018-07-04T22:08:31.350Z,2.40
2018-07-04T22:11:04.898Z,2.27
2018-07-04T22:13:38.464Z,2.57
2018-07-04T22:16:12.095Z,3.07
2018-07-04T22:18:45.534Z,2.80
2018-07-04T22:21:19.089Z,2.70
2018-07-04T22:23:52.703Z,2.80
2018-07-04T22:26:26.236Z,2.37
2018-07-04T22:28:59.780Z,2.60
2018-07-04T22:31:33.630Z,2.47
2018-07-04T22:34:07.454Z,2.70
2018-07-04T22:36:41.486Z,2.83
2018-07-04T22:39:15.011Z,2.87
2018-07-04T22:41:48.647Z,3.20
2018-07-04T22:44:22.324Z,2.47
2018-07-04T22:46:55.899Z,2.50
2018-07-04T22:49:29.492Z,2.10
2018-07-04T22:52:03.242Z,2.83
2018-07-04T22:54:37.014Z,2.70
2018-07-04T22:57:10.740Z,3.00
2018-07-04T22:59:44.435Z,2.73
2018-07-04T23:02:21.862Z,2.60
2018-07-04T23:04:59.011Z,2.60
2018-07-04T23:07:36.325Z,2.47
2018-07-04T23:10:13.780Z,2.87
2018-07-04T23:12:51.259Z,2.57
2018-07-04T23:15:29.881Z,2.90
2018-07-04T23:18:06.709Z,2.87
2018-07-04T23:20:43.768Z,3.30
2018-07-04T23:23:21.401Z,3.43
2018-07-04T23:25:57.995Z,2.93
2018-07-04T23:28:37.300Z,2.77
2018-07-04T23:31:14.795Z,2.70
2018-07-04T23:33:52.869Z,3.17
2018-07-04T23:36:30.008Z,2.90
2018-07-04T23:39:06.971Z,2.77
2018-07-04T23:41:43.895Z,3.00
2018-07-04T23:44:20.357Z,2.80
2018-07-04T23:46:57.609Z,3.00
2018-07-04T23:49:34.402Z,2.50
2018-07-04T23:52:11.135Z,2.77
2018-07-04T23:54:49.064Z,3.17
2018-07-04T23:57:25.723Z,3.13
